createdAt,value
2022-11-02T00:00:37.044Z,6.50
2022-11-02T00:01:37.266Z,4.90
2022-11-02T00:02:37.453Z,4.50
2022-11-02T00:03:37.575Z,5.60
2022-11-02T00:04:37.747Z,5.50
2022-11-02T00:05:37.916Z,4.60
2022-11-02T00:06:38.078Z,5.00
2022-11-02T00:07:38.256Z,6.30
2022-11-02T00:08:38.426Z,5.00
2022-11-02T00:09:38.596Z,5.00
2022-11-02T00:10:38.757Z,4.50
2022-11-02T00:11:38.926Z,3.80
2022-11-02T00:12:39.096Z,5.40
2022-11-02T00:13:39.258Z,3.80
2022-11-02T00:14:39.447Z,5.10
2022-11-02T00:15:39.606Z,4.90
2022-11-02T00:16:39.796Z,4.70
2022-11-02T00:17:39.977Z,4.00
2022-11-02T00:18:40.149Z,4.60
2022-11-02T00:19:40.306Z,4.80
2022-11-02T00:20:40.477Z,6.80
2022-11-02T00:21:40.656Z,3.60
2022-11-02T00:22:40.866Z,4.60
2022-11-02T00:23:41.259Z,8.20
2022-11-02T00:24:41.199Z,4.30
2022-11-02T00:25:41.357Z,3.70
2022-11-02T00:26:41.518Z,4.00
2022-11-02T00:27:41.686Z,4.00
2022-11-02T00:28:41.858Z,4.10
2022-11-02T00:29:42.005Z,3.70
2022-11-02T00:30:42.197Z,3.90
2022-11-02T00:31:42.385Z,4.10
2022-11-02T00:32:42.547Z,3.50
2022-11-02T00:33:42.696Z,2.80
2022-11-02T00:34:42.886Z,3.70
2022-11-02T00:35:43.046Z,3.20
2022-11-02T00:36:43.236Z,2.70
2022-11-02T00:37:43.409Z,3.20
2022-11-02T00:38:43.565Z,3.30
2022-11-02T00:39:43.726Z,3.40
2022-11-02T00:40:43.887Z,3.50
2022-11-02T00:41:44.046Z,3.40
2022-11-02T00:42:44.262Z,2.60
2022-11-02T00:43:44.408Z,3.40
2022-11-02T00:44:44.606Z,4.20
2022-11-02T00:45:44.766Z,3.10
2022-11-02T00:46:44.926Z,3.10
2022-11-02T00:47:45.096Z,2.90
2022-11-02T00:48:45.265Z,3.00
2022-11-02T00:49:45.425Z,3.10
2022-11-02T00:50:45.584Z,3.20
2022-11-02T00:51:45.776Z,3.10
2022-11-02T00:52:45.952Z,3.10
2022-11-02T00:53:46.127Z,3.60
2022-11-02T00:54:46.284Z,2.80
2022-11-02T00:55:46.436Z,3.20
2022-11-02T00:56:46.595Z,2.90
2022-11-02T00:57:46.806Z,3.30
2022-11-02T00:58:46.965Z,3.70
2022-11-02T00:59:47.126Z,2.60
2022-11-02T01:00:47.284Z,3.10
2022-11-02T01:01:47.603Z,2.90
2022-11-02T01:02:47.830Z,2.30
2022-11-02T01:03:47.806Z,2.50
2022-11-02T01:04:47.966Z,2.80
2022-11-02T01:05:48.125Z,2.30
2022-11-02T01:06:48.284Z,1.70
2022-11-02T01:07:48.492Z,2.30
2022-11-02T01:08:48.651Z,2.10
2022-11-02T01:09:48.812Z,2.00
2022-11-02T01:10:48.968Z,2.40
2022-11-02T01:11:49.165Z,2.60
2022-11-02T01:12:49.345Z,2.60
2022-11-02T01:13:49.509Z,1.80
2022-11-02T01:14:49.665Z,1.80
2022-11-02T01:15:49.824Z,2.60
2022-11-02T01:16:49.986Z,2.20
2022-11-02T01:17:50.164Z,2.40
2022-11-02T01:18:50.315Z,3.50
2022-11-02T01:19:50.512Z,2.50
2022-11-02T01:20:50.664Z,2.80
2022-11-02T01:21:50.865Z,3.40
2022-11-02T01:22:51.034Z,2.90
2022-11-02T01:23:51.196Z,2.40
2022-11-02T01:24:51.353Z,2.80
2022-11-02T01:25:51.513Z,3.30
2022-11-02T01:26:51.698Z,3.30
2022-11-02T01:27:51.904Z,2.90
2022-11-02T01:28:52.064Z,2.60
2022-11-02T01:29:52.225Z,2.30
2022-11-02T01:30:52.385Z,1.60
2022-11-02T01:31:52.574Z,1.80
2022-11-02T01:32:52.743Z,2.00
2022-11-02T01:33:52.905Z,1.70
2022-11-02T01:34:53.063Z,1.70
2022-11-02T01:35:53.223Z,1.90
2022-11-02T01:36:53.383Z,1.50
2022-11-02T01:37:53.586Z,1.00
2022-11-02T01:38:53.746Z,1.40
2022-11-02T01:39:53.903Z,1.50
2022-11-02T01:40:54.063Z,1.60
2022-11-02T01:41:54.222Z,1.60
2022-11-02T01:42:54.393Z,1.80
2022-11-02T01:43:54.549Z,1.40
2022-11-02T01:44:54.704Z,2.00
2022-11-02T01:45:54.895Z,1.90
2022-11-02T01:46:55.053Z,2.40
2022-11-02T01:47:55.262Z,1.80
2022-11-02T01:48:55.413Z,1.70
2022-11-02T01:49:55.612Z,2.20
2022-11-02T01:50:55.764Z,1.80
2022-11-02T01:51:55.961Z,1.80
2022-11-02T01:52:56.124Z,1.80
2022-11-02T01:53:56.285Z,2.10
2022-11-02T01:54:56.444Z,1.70
2022-11-02T01:55:56.642Z,1.30
2022-11-02T01:56:56.843Z,1.30
2022-11-02T01:57:56.982Z,1.70
2022-11-02T01:58:57.143Z,0.70
2022-11-02T01:59:57.333Z,1.00
2022-11-02T02:00:57.492Z,1.10
2022-11-02T02:01:57.752Z,1.00
2022-11-02T02:02:57.890Z,1.20
2022-11-02T02:03:57.999Z,1.60
2022-11-02T02:04:58.143Z,0.80
2022-11-02T02:05:58.304Z,1.00
2022-11-02T02:06:58.462Z,1.00
2022-11-02T02:07:58.663Z,1.30
2022-11-02T02:08:58.825Z,0.80
2022-11-02T02:09:59.022Z,0.70
2022-11-02T02:10:59.182Z,0.90
2022-11-02T02:11:59.392Z,1.40
2022-11-02T02:12:59.543Z,0.70
2022-11-02T02:13:59.748Z,0.80
2022-11-02T02:14:59.894Z,0.80
2022-11-02T02:16:00.090Z,0.60
2022-11-02T02:17:00.271Z,0.70
2022-11-02T02:18:00.687Z,0.60
2022-11-02T02:19:00.592Z,0.90
2022-11-02T02:20:00.751Z,1.80
2022-11-02T02:21:00.911Z,0.50
2022-11-02T02:22:01.113Z,0.80
2022-11-02T02:23:01.271Z,0.50
2022-11-02T02:24:01.435Z,0.60
2022-11-02T02:25:01.592Z,0.80
2022-11-02T02:26:01.751Z,0.90
2022-11-02T02:27:01.929Z,1.20
2022-11-02T02:28:02.419Z,0.60
2022-11-02T02:29:02.252Z,0.50
2022-11-02T02:30:02.433Z,1.00
2022-11-02T02:31:02.575Z,1.20
2022-11-02T02:32:02.782Z,0.50
2022-11-02T02:33:02.943Z,0.30
2022-11-02T02:34:03.101Z,0.90
2022-11-02T02:35:03.260Z,0.60
2022-11-02T02:36:03.431Z,0.40
2022-11-02T02:37:03.605Z,0.90
2022-11-02T02:38:04.140Z,0.50
2022-11-02T02:39:03.940Z,1.00
2022-11-02T02:40:04.105Z,0.40
2022-11-02T02:41:04.262Z,0.60
2022-11-02T02:42:04.460Z,0.60
2022-11-02T02:43:04.620Z,0.80
2022-11-02T02:44:04.810Z,1.30
2022-11-02T02:45:04.972Z,0.80
2022-11-02T02:46:05.163Z,0.60
2022-11-02T02:47:05.332Z,0.70
2022-11-02T02:48:05.781Z,0.40
2022-11-02T02:49:05.642Z,0.70
2022-11-02T02:50:05.843Z,0.50
2022-11-02T02:51:05.990Z,0.90
2022-11-02T02:52:06.206Z,0.70
2022-11-02T02:53:06.362Z,0.40
2022-11-02T02:54:06.521Z,0.40
2022-11-02T02:55:06.682Z,1.00
2022-11-02T02:56:06.840Z,0.70
2022-11-02T02:57:07.021Z,0.40
2022-11-02T02:58:07.596Z,0.80
2022-11-02T02:59:07.348Z,0.30
2022-11-02T03:00:07.541Z,0.70
2022-11-02T03:01:07.729Z,0.30
2022-11-02T03:02:08.004Z,0.50
2022-11-02T03:03:08.039Z,0.60
2022-11-02T03:04:08.200Z,0.80
2022-11-02T03:05:08.359Z,0.40
2022-11-02T03:06:08.520Z,0.40
2022-11-02T03:07:08.699Z,0.20
2022-11-02T03:08:08.876Z,0.60
2022-11-02T03:09:09.009Z,0.30
2022-11-02T03:10:09.200Z,0.30
2022-11-02T03:11:09.394Z,0.30
2022-11-02T03:12:09.607Z,0.70
2022-11-02T03:13:09.760Z,0.40
2022-11-02T03:14:09.952Z,0.40
2022-11-02T03:15:10.121Z,0.40
2022-11-02T03:16:10.286Z,0.90
2022-11-02T03:17:10.449Z,0.20
2022-11-02T03:18:10.618Z,0.50
2022-11-02T03:19:10.769Z,0.60
2022-11-02T03:20:10.972Z,1.00
2022-11-02T03:21:11.119Z,0.40
2022-11-02T03:22:11.320Z,0.20
2022-11-02T03:23:11.478Z,0.50
2022-11-02T03:24:11.670Z,0.80
2022-11-02T03:25:11.829Z,0.30
2022-11-02T03:26:12.018Z,0.60
2022-11-02T03:27:12.189Z,0.20
2022-11-02T03:28:12.358Z,0.40
2022-11-02T03:29:12.509Z,0.30
2022-11-02T03:30:12.709Z,0.40
2022-11-02T03:31:12.859Z,0.20
2022-11-02T03:32:13.069Z,0.60
2022-11-02T03:33:13.228Z,0.90
2022-11-02T03:34:13.389Z,0.60
2022-11-02T03:35:13.548Z,0.20
2022-11-02T03:36:13.746Z,0.50
2022-11-02T03:37:13.921Z,0.60
2022-11-02T03:38:14.080Z,0.80
2022-11-02T03:39:14.238Z,0.30
2022-11-02T03:40:14.407Z,0.40
2022-11-02T03:41:14.558Z,0.50
2022-11-02T03:42:14.748Z,1.10
2022-11-02T03:43:14.878Z,0.60
2022-11-02T03:44:15.038Z,0.20
2022-11-02T03:45:15.199Z,0.60
2022-11-02T03:46:15.388Z,0.50
2022-11-02T03:47:15.558Z,0.30
2022-11-02T03:48:15.720Z,0.50
2022-11-02T03:49:15.881Z,0.90
2022-11-02T03:50:16.076Z,0.50
2022-11-02T03:51:16.229Z,0.70
2022-11-02T03:52:16.409Z,0.50
2022-11-02T03:53:16.568Z,0.30
2022-11-02T03:54:16.729Z,0.20
2022-11-02T03:55:16.879Z,0.70
2022-11-02T03:56:17.077Z,0.50
2022-11-02T03:57:17.258Z,0.50
2022-11-02T03:58:17.408Z,0.80
2022-11-02T03:59:17.572Z,0.40
2022-11-02T04:00:17.727Z,0.40
2022-11-02T04:01:17.993Z,0.60
2022-11-02T04:02:18.207Z,0.80
2022-11-02T04:03:18.239Z,0.40
2022-11-02T04:04:18.436Z,0.80
2022-11-02T04:05:18.587Z,0.60
2022-11-02T04:06:18.747Z,0.80
2022-11-02T04:07:18.944Z,0.90
2022-11-02T04:08:19.074Z,0.30
2022-11-02T04:09:19.227Z,0.30
2022-11-02T04:10:19.417Z,1.00
2022-11-02T04:11:19.577Z,0.70
2022-11-02T04:12:19.752Z,0.60
2022-11-02T04:13:19.907Z,0.20
2022-11-02T04:14:20.099Z,0.50
2022-11-02T04:15:20.257Z,0.40
2022-11-02T04:16:25.072Z,0.40
2022-11-02T04:17:21.691Z,0.20
2022-11-02T04:18:20.767Z,0.30
2022-11-02T04:19:20.927Z,0.90
2022-11-02T04:20:21.088Z,0.60
2022-11-02T04:21:21.237Z,0.20
2022-11-02T04:22:21.449Z,1.20
2022-11-02T04:23:21.606Z,0.40
2022-11-02T04:24:21.767Z,0.60
2022-11-02T04:25:21.924Z,0.50
2022-11-02T04:26:22.078Z,0.40
2022-11-02T04:27:22.258Z,0.20
2022-11-02T04:28:22.416Z,1.30
2022-11-02T04:29:22.575Z,0.70
2022-11-02T04:30:22.771Z,0.80
2022-11-02T04:31:22.926Z,1.40
2022-11-02T04:32:23.116Z,0.90
2022-11-02T04:33:23.266Z,0.40
2022-11-02T04:34:23.476Z,1.10
2022-11-02T04:35:23.636Z,0.40
2022-11-02T04:36:23.795Z,1.40
2022-11-02T04:37:24.013Z,0.90
2022-11-02T04:38:24.128Z,0.30
2022-11-02T04:39:24.285Z,0.30
2022-11-02T04:40:24.446Z,0.40
2022-11-02T04:41:24.607Z,0.50
2022-11-02T04:42:24.777Z,0.40
2022-11-02T04:43:24.936Z,1.30
2022-11-02T04:44:27.966Z,0.60
2022-11-02T04:45:25.404Z,0.50
2022-11-02T04:46:25.474Z,0.60
2022-11-02T04:47:25.636Z,1.20
2022-11-02T04:48:25.805Z,0.30
2022-11-02T04:49:25.955Z,0.90
2022-11-02T04:50:26.125Z,0.70
2022-11-02T04:51:26.286Z,0.60
2022-11-02T04:52:26.456Z,0.40
2022-11-02T04:53:26.615Z,0.40
2022-11-02T04:54:26.815Z,0.70
2022-11-02T04:55:26.972Z,1.20
2022-11-02T04:56:27.165Z,0.30
2022-11-02T04:57:27.344Z,0.60
2022-11-02T04:58:27.504Z,0.60
2022-11-02T04:59:27.655Z,1.20
2022-11-02T05:00:27.852Z,0.70
2022-11-02T05:01:28.135Z,0.60
2022-11-02T05:02:28.303Z,0.90
2022-11-02T05:03:28.335Z,0.70
2022-11-02T05:04:28.496Z,1.10
2022-11-02T05:05:28.663Z,0.50
2022-11-02T05:06:28.818Z,0.50
2022-11-02T05:07:29.006Z,0.90
2022-11-02T05:08:29.162Z,1.00
2022-11-02T05:09:29.356Z,1.10
2022-11-02T05:10:29.524Z,0.60
2022-11-02T05:11:29.684Z,0.70
2022-11-02T05:12:29.855Z,1.00
2022-11-02T05:13:30.024Z,0.90
2022-11-02T05:14:30.174Z,0.80
2022-11-02T05:15:30.347Z,0.30
2022-11-02T05:16:30.502Z,0.80
2022-11-02T05:17:30.704Z,0.60
2022-11-02T05:18:30.868Z,0.50
2022-11-02T05:19:31.057Z,1.00
2022-11-02T05:20:31.225Z,0.70
2022-11-02T05:21:31.404Z,0.60
2022-11-02T05:22:31.574Z,0.70
2022-11-02T05:23:31.740Z,1.20
2022-11-02T05:24:31.895Z,0.60
2022-11-02T05:25:32.055Z,0.50
2022-11-02T05:26:32.214Z,0.40
2022-11-02T05:27:32.395Z,0.40
2022-11-02T05:28:32.563Z,1.00
2022-11-02T05:29:32.718Z,1.20
2022-11-02T05:30:32.874Z,0.60
2022-11-02T05:31:33.050Z,1.00
2022-11-02T05:32:33.207Z,0.60
2022-11-02T05:33:33.363Z,0.60
2022-11-02T05:34:33.525Z,1.00
2022-11-02T05:35:33.686Z,0.30
2022-11-02T05:36:33.922Z,0.50
2022-11-02T05:37:34.041Z,1.10
2022-11-02T05:38:34.252Z,1.00
2022-11-02T05:39:34.372Z,0.70
2022-11-02T05:40:34.533Z,1.20
2022-11-02T05:41:34.705Z,0.90
2022-11-02T05:42:34.881Z,0.40
2022-11-02T05:43:35.044Z,0.50
2022-11-02T05:44:35.213Z,1.00
2022-11-02T05:45:35.428Z,0.90
2022-11-02T05:46:35.582Z,0.50
2022-11-02T05:47:35.763Z,0.80
2022-11-02T05:48:35.950Z,1.20
2022-11-02T05:49:36.133Z,1.30
2022-11-02T05:50:36.322Z,0.60
2022-11-02T05:51:36.484Z,0.60
2022-11-02T05:52:36.634Z,0.40
2022-11-02T05:53:36.815Z,0.80
2022-11-02T05:54:36.991Z,1.50
2022-11-02T05:55:37.184Z,1.50
2022-11-02T05:56:37.343Z,1.20
2022-11-02T05:57:37.503Z,0.60
2022-11-02T05:58:37.736Z,0.50
2022-11-02T05:59:37.862Z,0.50
2022-11-02T06:00:38.020Z,0.90
2022-11-02T06:01:38.254Z,0.50
2022-11-02T06:02:38.351Z,0.70
2022-11-02T06:03:38.548Z,1.50
2022-11-02T06:04:38.699Z,1.10
2022-11-02T06:05:38.925Z,1.20
2022-11-02T06:06:39.071Z,1.00
2022-11-02T06:07:39.242Z,0.50
2022-11-02T06:08:39.392Z,0.60
2022-11-02T06:09:39.582Z,1.40
2022-11-02T06:10:39.739Z,0.50
2022-11-02T06:11:39.943Z,1.00
2022-11-02T06:12:40.081Z,0.50
2022-11-02T06:13:40.260Z,1.90
2022-11-02T06:14:40.411Z,1.00
2022-11-02T06:15:40.601Z,0.90
2022-11-02T06:16:40.768Z,0.40
2022-11-02T06:17:40.945Z,0.40
2022-11-02T06:18:41.132Z,1.10
2022-11-02T06:19:41.292Z,0.40
2022-11-02T06:20:41.509Z,1.00
2022-11-02T06:21:44.421Z,0.80
2022-11-02T06:22:42.799Z,0.60
2022-11-02T06:23:41.962Z,0.40
2022-11-02T06:24:42.150Z,0.70
2022-11-02T06:25:42.302Z,0.60
2022-11-02T06:26:42.471Z,1.00
2022-11-02T06:27:45.865Z,0.80
2022-11-02T06:28:42.792Z,1.30
2022-11-02T06:29:42.981Z,0.50
2022-11-02T06:30:43.182Z,1.20
2022-11-02T06:31:43.391Z,0.80
2022-11-02T06:32:43.532Z,1.00
2022-11-02T06:33:43.712Z,0.10
2022-11-02T06:34:43.884Z,1.10
2022-11-02T06:35:44.082Z,0.50
2022-11-02T06:36:44.240Z,1.20
2022-11-02T06:37:44.399Z,0.40
2022-11-02T06:38:44.562Z,1.10
2022-11-02T06:39:44.701Z,0.60
2022-11-02T06:40:44.904Z,0.50
2022-11-02T06:41:45.079Z,0.30
2022-11-02T06:42:56.482Z,1.10
2022-11-02T06:43:46.432Z,0.70
2022-11-02T06:44:45.601Z,0.70
2022-11-02T06:45:45.760Z,0.50
2022-11-02T06:46:45.948Z,1.00
2022-11-02T06:47:46.100Z,0.40
2022-11-02T06:48:46.259Z,0.80
2022-11-02T06:49:46.419Z,0.60
2022-11-02T06:50:46.590Z,0.60
2022-11-02T06:51:46.771Z,0.20
2022-11-02T06:52:46.930Z,0.50
2022-11-02T06:53:47.094Z,0.80
2022-11-02T06:54:47.260Z,0.60
2022-11-02T06:55:47.421Z,1.50
2022-11-02T06:56:47.611Z,0.20
2022-11-02T06:57:47.807Z,0.40
2022-11-02T06:58:47.959Z,0.30
2022-11-02T06:59:53.704Z,0.90
2022-11-02T07:00:49.358Z,0.70
2022-11-02T07:01:48.606Z,1.50
2022-11-02T07:02:48.659Z,1.00
2022-11-02T07:03:48.856Z,0.60
2022-11-02T07:04:49.030Z,0.60
2022-11-02T07:05:49.220Z,0.80
2022-11-02T07:06:49.408Z,1.10
2022-11-02T07:07:49.570Z,0.40
2022-11-02T07:08:49.752Z,1.00
2022-11-02T07:09:49.938Z,0.60
2022-11-02T07:10:50.120Z,0.70
2022-11-02T07:11:50.351Z,0.60
2022-11-02T07:12:50.472Z,0.70
2022-11-02T07:13:50.654Z,0.60
2022-11-02T07:14:50.832Z,0.50
2022-11-02T07:15:51.011Z,0.80
2022-11-02T07:16:51.213Z,0.20
2022-11-02T07:17:51.361Z,1.00
2022-11-02T07:18:51.544Z,0.60
2022-11-02T07:19:51.721Z,0.30
2022-11-02T07:20:51.908Z,0.70
2022-11-02T07:21:52.100Z,0.80
2022-11-02T07:22:52.250Z,0.30
2022-11-02T07:23:52.442Z,0.70
2022-11-02T07:24:52.620Z,0.70
2022-11-02T07:25:52.799Z,1.00
2022-11-02T07:26:53.020Z,0.50
2022-11-02T07:27:53.159Z,1.30
2022-11-02T07:28:56.802Z,1.10
2022-11-02T07:29:54.548Z,0.90
2022-11-02T07:30:53.699Z,0.60
2022-11-02T07:31:53.902Z,0.90
2022-11-02T07:32:54.009Z,0.90
2022-11-02T07:33:54.200Z,0.60
2022-11-02T07:34:54.378Z,1.80
2022-11-02T07:35:54.519Z,1.70
2022-11-02T07:36:54.716Z,1.10
2022-11-02T07:37:54.870Z,0.60
2022-11-02T07:38:55.039Z,0.90
2022-11-02T07:39:55.229Z,0.70
2022-11-02T07:40:55.433Z,0.80
2022-11-02T07:41:55.684Z,0.50
2022-11-02T07:42:55.759Z,0.70
2022-11-02T07:43:55.939Z,0.40
2022-11-02T07:44:56.119Z,0.50
2022-11-02T07:45:56.300Z,0.30
2022-11-02T07:46:56.498Z,0.70
2022-11-02T07:47:56.649Z,0.60
2022-11-02T07:48:56.830Z,0.60
2022-11-02T07:49:57.020Z,0.50
2022-11-02T07:50:57.172Z,0.50
2022-11-02T07:51:57.369Z,0.30
2022-11-02T07:52:57.540Z,0.90
2022-11-02T07:53:57.730Z,0.80
2022-11-02T07:54:57.910Z,0.40
2022-11-02T07:55:58.114Z,0.80
2022-11-02T07:56:58.268Z,0.50
2022-11-02T07:57:58.471Z,0.80
2022-11-02T07:58:58.578Z,0.40
2022-11-02T07:59:58.764Z,0.80
2022-11-02T08:01:00.032Z,1.20
2022-11-02T08:01:59.189Z,0.30
2022-11-02T08:02:59.437Z,0.70
2022-11-02T08:03:59.490Z,0.50
2022-11-02T08:04:59.642Z,0.80
2022-11-02T08:05:59.827Z,0.60
2022-11-02T08:07:00.021Z,0.90
2022-11-02T08:08:00.171Z,0.70
2022-11-02T08:09:00.357Z,0.50
2022-11-02T08:10:00.537Z,0.70
2022-11-02T08:11:00.690Z,0.50
2022-11-02T08:12:00.882Z,0.70
2022-11-02T08:13:01.200Z,0.50
2022-11-02T08:14:01.192Z,0.80
2022-11-02T08:15:07.191Z,0.20
2022-11-02T08:16:02.561Z,0.50
2022-11-02T08:17:01.760Z,0.80
2022-11-02T08:18:02.216Z,0.60
2022-11-02T08:19:02.083Z,1.20
2022-11-02T08:20:02.260Z,0.40
2022-11-02T08:21:02.440Z,0.90
2022-11-02T08:22:02.631Z,0.90
2022-11-02T08:23:02.794Z,0.60
2022-11-02T08:24:02.977Z,0.30
2022-11-02T08:25:03.257Z,0.50
2022-11-02T08:26:03.317Z,0.40
2022-11-02T08:27:03.500Z,1.00
2022-11-02T08:28:04.154Z,0.60
2022-11-02T08:29:03.829Z,0.60
2022-11-02T08:30:04.011Z,3.90
2022-11-02T08:31:04.171Z,0.90
2022-11-02T08:32:04.370Z,1.60
2022-11-02T08:33:04.550Z,0.80
2022-11-02T08:34:04.739Z,1.20
2022-11-02T08:35:04.883Z,0.70
2022-11-02T08:36:05.064Z,0.70
2022-11-02T08:37:05.280Z,0.50
2022-11-02T08:38:05.772Z,0.30
2022-11-02T08:39:05.602Z,1.00
2022-11-02T08:40:05.781Z,0.90
2022-11-02T08:41:05.952Z,0.10
2022-11-02T08:42:06.151Z,0.40
2022-11-02T08:43:06.330Z,0.70
2022-11-02T08:44:06.584Z,0.50
2022-11-02T08:45:06.671Z,0.80
2022-11-02T08:46:14.960Z,0.30
2022-11-02T08:47:09.513Z,1.00
2022-11-02T08:48:07.558Z,0.80
2022-11-02T08:49:07.371Z,1.00
2022-11-02T08:50:07.551Z,0.50
2022-11-02T08:51:07.736Z,0.50
2022-11-02T08:52:07.922Z,0.50
2022-11-02T08:53:08.073Z,0.40
2022-11-02T08:54:08.251Z,0.50
2022-11-02T08:55:08.412Z,0.40
2022-11-02T08:56:08.596Z,0.50
2022-11-02T08:57:08.798Z,0.30
2022-11-02T08:58:08.954Z,0.60
2022-11-02T08:59:09.134Z,1.10
2022-11-02T09:00:09.316Z,0.90
2022-11-02T09:01:09.557Z,0.40
2022-11-02T09:02:09.812Z,0.50
2022-11-02T09:03:09.961Z,0.30
2022-11-02T09:04:10.045Z,1.10
2022-11-02T09:05:10.223Z,0.30
2022-11-02T09:06:10.426Z,0.50
2022-11-02T09:07:10.553Z,0.80
2022-11-02T09:08:10.800Z,0.40
2022-11-02T09:09:10.934Z,0.40
2022-11-02T09:10:11.105Z,0.30
2022-11-02T09:11:11.299Z,0.70
2022-11-02T09:12:11.474Z,0.40
2022-11-02T09:13:11.657Z,0.50
2022-11-02T09:14:11.900Z,0.50
2022-11-02T09:15:12.017Z,1.60
2022-11-02T09:16:12.205Z,1.30
2022-11-02T09:17:12.357Z,2.00
2022-11-02T09:18:12.547Z,1.60
2022-11-02T09:19:12.703Z,0.50
2022-11-02T09:20:12.888Z,0.80
2022-11-02T09:21:13.075Z,1.70
2022-11-02T09:22:13.217Z,0.80
2022-11-02T09:23:13.436Z,0.40
2022-11-02T09:24:13.594Z,1.00
2022-11-02T09:25:13.777Z,0.40
2022-11-02T09:26:13.977Z,0.50
2022-11-02T09:27:14.126Z,0.30
2022-11-02T09:28:14.297Z,0.70
2022-11-02T09:29:14.605Z,0.70
2022-11-02T09:30:14.678Z,0.80
2022-11-02T09:31:14.882Z,0.70
2022-11-02T09:32:15.020Z,0.30
2022-11-02T09:33:15.211Z,1.10
2022-11-02T09:34:15.392Z,0.50
2022-11-02T09:35:15.559Z,0.90
2022-11-02T09:36:15.767Z,0.70
2022-11-02T09:37:15.920Z,1.00
2022-11-02T09:38:16.108Z,1.60
2022-11-02T09:39:16.286Z,0.40
2022-11-02T09:40:16.458Z,0.40
2022-11-02T09:41:16.659Z,0.70
2022-11-02T09:42:16.808Z,0.90
2022-11-02T09:43:16.989Z,0.40
2022-11-02T09:44:17.169Z,0.80
2022-11-02T09:45:17.360Z,0.30
2022-11-02T09:46:17.558Z,0.70
2022-11-02T09:48:02.846Z,0.70
2022-11-02T09:48:23.346Z,0.70
2022-11-02T09:49:19.029Z,0.30
2022-11-02T09:50:18.266Z,0.60
2022-11-02T09:51:18.430Z,0.50
2022-11-02T09:52:18.568Z,0.80
2022-11-02T09:53:18.749Z,0.80
2022-11-02T09:54:18.938Z,0.60
2022-11-02T09:55:19.160Z,0.30
2022-11-02T09:56:19.302Z,0.40
2022-11-02T09:57:19.500Z,0.30
2022-11-02T09:58:19.647Z,0.50
2022-11-02T09:59:19.830Z,0.70
2022-11-02T10:00:20.016Z,0.40
2022-11-02T10:01:20.270Z,0.40
2022-11-02T10:02:20.398Z,1.00
2022-11-02T10:03:20.580Z,0.70
2022-11-02T10:04:20.721Z,0.60
2022-11-02T10:05:20.900Z,0.40
2022-11-02T10:06:21.101Z,0.80
2022-11-02T10:07:21.270Z,0.60
2022-11-02T10:08:21.426Z,0.80
2022-11-02T10:09:21.582Z,0.40
2022-11-02T10:10:21.742Z,0.80
2022-11-02T10:11:21.932Z,0.70
2022-11-02T10:12:22.081Z,0.60
2022-11-02T10:13:22.270Z,0.50
2022-11-02T10:14:22.442Z,0.50
2022-11-02T10:15:22.650Z,0.60
2022-11-02T10:16:22.791Z,0.60
2022-11-02T10:17:22.974Z,0.70
2022-11-02T10:18:23.172Z,0.70
2022-11-02T10:19:26.344Z,1.10
2022-11-02T10:20:23.531Z,0.90
2022-11-02T10:21:23.681Z,0.60
2022-11-02T10:22:23.868Z,0.70
2022-11-02T10:23:24.060Z,0.50
2022-11-02T10:24:24.253Z,0.70
2022-11-02T10:25:24.459Z,0.50
2022-11-02T10:26:24.613Z,0.80
2022-11-02T10:27:24.792Z,0.70
2022-11-02T10:28:25.081Z,0.90
2022-11-02T10:29:25.141Z,0.90
2022-11-02T10:30:25.358Z,0.70
2022-11-02T10:31:25.528Z,0.70
2022-11-02T10:32:25.663Z,0.80
2022-11-02T10:33:25.850Z,0.40
2022-11-02T10:34:26.029Z,0.90
2022-11-02T10:35:41.103Z,0.40
2022-11-02T10:36:27.402Z,0.30
2022-11-02T10:37:26.596Z,0.60
2022-11-02T10:38:26.723Z,0.80
2022-11-02T10:39:26.901Z,0.50
2022-11-02T10:40:27.101Z,0.80
2022-11-02T10:41:27.253Z,0.50
2022-11-02T10:42:27.415Z,0.80
2022-11-02T10:43:27.563Z,0.40
2022-11-02T10:44:27.723Z,0.70
2022-11-02T10:45:27.937Z,1.00
2022-11-02T10:46:28.069Z,0.50
2022-11-02T10:47:28.284Z,0.40
2022-11-02T10:48:28.437Z,1.10
2022-11-02T10:49:28.632Z,0.70
2022-11-02T10:50:28.815Z,0.80
2022-11-02T10:51:28.964Z,0.70
2022-11-02T10:52:29.192Z,0.40
2022-11-02T10:53:41.180Z,0.40
2022-11-02T10:54:34.252Z,0.30
2022-11-02T10:55:29.664Z,0.40
2022-11-02T10:56:29.836Z,0.50
2022-11-02T10:57:30.021Z,0.50
2022-11-02T10:58:30.222Z,0.40
2022-11-02T10:59:30.369Z,0.30
2022-11-02T11:00:30.634Z,0.70
2022-11-02T11:01:30.780Z,0.30
2022-11-02T11:02:30.883Z,0.50
2022-11-02T11:03:31.087Z,0.90
2022-11-02T11:04:31.224Z,0.50
2022-11-02T11:05:31.428Z,0.60
2022-11-02T11:06:31.575Z,0.80
2022-11-02T11:07:31.748Z,1.20
2022-11-02T11:08:31.893Z,0.50
2022-11-02T11:09:32.100Z,1.20
2022-11-02T11:10:32.246Z,0.60
2022-11-02T11:11:32.436Z,0.60
2022-11-02T11:12:32.614Z,0.30
2022-11-02T11:15:49.373Z,0.60
2022-11-02T11:16:34.285Z,0.30
2022-11-02T11:19:38.439Z,0.70
2022-11-02T11:20:33.969Z,0.40
2022-11-02T11:21:34.163Z,0.70
2022-11-02T11:22:34.305Z,0.50
2022-11-02T11:23:34.504Z,0.30
2022-11-02T11:24:34.738Z,0.80
2022-11-02T11:25:34.855Z,0.30
2022-11-02T11:26:35.026Z,1.10
2022-11-02T11:27:35.206Z,1.30
2022-11-02T11:28:35.455Z,0.70
2022-11-02T11:29:35.589Z,0.60
2022-11-02T11:31:36.936Z,0.70
2022-11-02T11:32:36.127Z,0.80
2022-11-02T11:33:36.306Z,0.60
2022-11-02T11:34:36.486Z,0.80
2022-11-02T11:35:36.676Z,0.80
2022-11-02T11:36:36.841Z,0.60
2022-11-02T11:37:36.984Z,0.60
2022-11-02T11:38:37.135Z,0.80
2022-11-02T11:39:37.329Z,0.50
2022-11-02T11:40:37.511Z,0.80
2022-11-02T11:41:37.698Z,0.60
2022-11-02T11:42:37.877Z,0.80
2022-11-02T11:43:38.057Z,0.60
2022-11-02T11:44:38.250Z,0.40
2022-11-02T11:45:38.446Z,0.60
2022-11-02T11:46:38.590Z,0.70
2022-11-02T11:47:38.779Z,1.00
2022-11-02T11:48:38.965Z,0.70
2022-11-02T11:50:03.399Z,0.60
2022-11-02T11:50:40.347Z,0.70
2022-11-02T11:51:39.521Z,0.20
2022-11-02T11:52:39.687Z,0.80
2022-11-02T11:53:39.869Z,0.90
2022-11-02T11:54:40.048Z,0.40
2022-11-02T11:55:40.239Z,0.50
2022-11-02T11:56:40.407Z,0.80
2022-11-02T11:57:40.560Z,1.10
2022-11-02T11:58:40.727Z,0.40
2022-11-02T11:59:40.908Z,0.40
2022-11-02T12:00:41.185Z,0.50
2022-11-02T12:01:41.479Z,0.40
2022-11-02T12:02:44.647Z,0.40
2022-11-02T12:03:41.689Z,0.20
2022-11-02T12:04:41.868Z,0.50
2022-11-02T12:05:41.947Z,0.10
2022-11-02T12:06:42.118Z,0.60
2022-11-02T12:07:42.322Z,0.50
2022-11-02T12:08:42.491Z,0.60
2022-11-02T12:09:42.688Z,0.50
2022-11-02T12:10:42.869Z,0.40
2022-11-02T12:11:43.039Z,0.80
2022-11-02T12:12:43.223Z,1.10
2022-11-02T12:13:43.408Z,0.30
2022-11-02T12:14:43.604Z,0.20
2022-11-02T12:15:43.750Z,0.80
2022-11-02T12:16:43.979Z,0.30
2022-11-02T12:17:44.121Z,0.40
2022-11-02T12:18:44.368Z,0.30
2022-11-02T12:19:44.512Z,0.90
2022-11-02T12:20:44.659Z,0.20
2022-11-02T12:21:44.809Z,0.50
2022-11-02T12:22:45.042Z,0.50
2022-11-02T12:23:45.336Z,0.50
2022-11-02T12:24:45.372Z,0.20
2022-11-02T12:25:45.522Z,0.60
2022-11-02T12:26:45.714Z,0.20
2022-11-02T12:27:45.902Z,0.30
2022-11-02T12:28:46.079Z,0.30
2022-11-02T12:29:46.229Z,0.30
2022-11-02T12:30:46.402Z,1.10
2022-11-02T12:31:46.618Z,0.40
2022-11-02T12:32:46.779Z,0.40
2022-11-02T12:33:46.920Z,0.20
2022-11-02T12:34:57.703Z,0.30
2022-11-02T12:35:48.283Z,0.60
2022-11-02T12:37:26.143Z,0.90
2022-11-02T12:37:48.646Z,0.50
2022-11-02T12:38:47.807Z,0.10
2022-11-02T12:39:47.999Z,0.20
2022-11-02T12:40:48.132Z,0.20
2022-11-02T12:41:48.321Z,0.20
2022-11-02T12:42:48.499Z,0.20
2022-11-02T12:43:48.685Z,0.20
2022-11-02T12:44:48.880Z,0.40
2022-11-02T12:45:49.052Z,0.60
2022-11-02T12:46:49.515Z,0.40
2022-11-02T12:47:49.383Z,0.30
2022-11-02T12:48:49.572Z,0.30
2022-11-02T12:49:49.771Z,0.20
2022-11-02T12:50:49.945Z,0.60
2022-11-02T12:51:50.131Z,0.30
2022-11-02T12:52:50.319Z,0.20
2022-11-02T12:53:50.515Z,0.80
2022-11-02T12:54:50.672Z,0.20
2022-11-02T12:55:50.830Z,0.50
2022-11-02T12:56:51.012Z,0.70
2022-11-02T12:57:51.199Z,0.60
2022-11-02T12:58:51.382Z,0.50
2022-11-02T12:59:51.591Z,0.40
2022-11-02T13:00:51.848Z,0.50
2022-11-02T13:01:52.110Z,0.90
2022-11-02T13:02:52.099Z,0.50
2022-11-02T13:03:52.282Z,0.30
2022-11-02T13:04:52.492Z,1.00
2022-11-02T13:05:52.642Z,0.50
2022-11-02T13:06:52.833Z,0.40
2022-11-02T13:07:53.012Z,0.20
2022-11-02T13:08:53.227Z,0.60
2022-11-02T13:09:53.494Z,0.40
2022-11-02T13:10:54.068Z,0.30
2022-11-02T13:11:53.693Z,0.20
2022-11-02T13:12:53.880Z,0.20
2022-11-02T13:13:54.062Z,0.60
2022-11-02T13:14:54.254Z,0.30
2022-11-02T13:15:54.420Z,0.20
2022-11-02T13:16:54.562Z,0.20
2022-11-02T13:17:54.725Z,0.30
2022-11-02T13:18:54.902Z,0.60
2022-11-02T13:19:55.104Z,0.40
2022-11-02T13:20:55.276Z,0.40
2022-11-02T13:21:55.412Z,1.00
2022-11-02T13:22:55.623Z,0.40
2022-11-02T13:23:55.763Z,0.20
2022-11-02T13:24:55.973Z,0.30
2022-11-02T13:25:56.104Z,0.50